sensor_id;sensor_type;location;lat;lon;timestamp;P1;durP1;ratioP1;P2;durP2;ratioP2
56667;SDS011;42542;48.360;10.958;2022-07-10T00:02:52;8.02;;;4.70;;
56667;SDS011;42542;48.360;10.958;2022-07-10T00:05:54;7.93;;;4.38;;
56667;SDS011;42542;48.360;10.958;2022-07-10T00:08:56;7.82;;;4.15;;
56667;SDS011;42542;48.360;10.958;2022-07-10T00:11:58;8.10;;;4.50;;
56667;SDS011;42542;48.360;10.958;2022-07-10T00:15:00;8.57;;;4.83;;
56667;SDS011;42542;48.360;10.958;2022-07-10T00:18:02;8.05;;;4.65;;
56667;SDS011;42542;48.360;10.958;2022-07-10T00:21:04;8.50;;;5.05;;
56667;SDS011;42542;48.360;10.958;2022-07-10T00:24:08;8.70;;;4.97;;
56667;SDS011;42542;48.360;10.958;2022-07-10T00:27:11;8.63;;;4.80;;
56667;SDS011;42542;48.360;10.958;2022-07-10T00:30:14;9.30;;;5.00;;
56667;SDS011;42542;48.360;10.958;2022-07-10T00:33:16;8.57;;;5.10;;
56667;SDS011;42542;48.360;10.958;2022-07-10T00:36:18;9.23;;;5.13;;
56667;SDS011;42542;48.360;10.958;2022-07-10T00:39:20;9.27;;;5.43;;
56667;SDS011;42542;48.360;10.958;2022-07-10T00:42:22;9.43;;;5.53;;
56667;SDS011;42542;48.360;10.958;2022-07-10T00:45:27;10.85;;;6.05;;
56667;SDS011;42542;48.360;10.958;2022-07-10T00:48:29;9.18;;;5.85;;
56667;SDS011;42542;48.360;10.958;2022-07-10T00:51:31;9.98;;;5.80;;
56667;SDS011;42542;48.360;10.958;2022-07-10T00:54:35;10.25;;;6.03;;
56667;SDS011;42542;48.360;10.958;2022-07-10T00:57:38;10.80;;;6.13;;
56667;SDS011;42542;48.360;10.958;2022-07-10T01:00:41;9.95;;;5.82;;
56667;SDS011;42542;48.360;10.958;2022-07-10T01:03:44;9.57;;;5.53;;
56667;SDS011;42542;48.360;10.958;2022-07-10T01:06:49;9.95;;;5.85;;
56667;SDS011;42542;48.360;10.958;2022-07-10T01:09:52;10.90;;;5.60;;
56667;SDS011;42542;48.360;10.958;2022-07-10T01:12:54;8.87;;;5.20;;
56667;SDS011;42542;48.360;10.958;2022-07-10T01:15:56;9.98;;;5.88;;
56667;SDS011;42542;48.360;10.958;2022-07-10T01:18:59;9.77;;;6.15;;
56667;SDS011;42542;48.360;10.958;2022-07-10T01:22:01;11.60;;;5.85;;
56667;SDS011;42542;48.360;10.958;2022-07-10T01:25:03;11.52;;;6.50;;
56667;SDS011;42542;48.360;10.958;2022-07-10T01:28:07;9.50;;;5.97;;
56667;SDS011;42542;48.360;10.958;2022-07-10T01:31:09;10.07;;;6.32;;
56667;SDS011;42542;48.360;10.958;2022-07-10T01:34:11;11.52;;;6.50;;
56667;SDS011;42542;48.360;10.958;2022-07-10T01:37:13;12.50;;;6.65;;
56667;SDS011;42542;48.360;10.958;2022-07-10T01:40:15;11.10;;;6.63;;
56667;SDS011;42542;48.360;10.958;2022-07-10T01:43:17;10.33;;;6.50;;
56667;SDS011;42542;48.360;10.958;2022-07-10T01:46:20;11.73;;;6.57;;
56667;SDS011;42542;48.360;10.958;2022-07-10T01:49:22;13.73;;;7.28;;
56667;SDS011;42542;48.360;10.958;2022-07-10T01:52:24;12.20;;;7.05;;
56667;SDS011;42542;48.360;10.958;2022-07-10T01:55:26;14.05;;;7.25;;
56667;SDS011;42542;48.360;10.958;2022-07-10T01:58:28;11.50;;;6.67;;
56667;SDS011;42542;48.360;10.958;2022-07-10T02:01:30;11.57;;;6.30;;
56667;SDS011;42542;48.360;10.958;2022-07-10T02:04:33;10.43;;;6.20;;
56667;SDS011;42542;48.360;10.958;2022-07-10T02:07:44;10.65;;;6.32;;
56667;SDS011;42542;48.360;10.958;2022-07-10T02:10:46;10.02;;;6.15;;
56667;SDS011;42542;48.360;10.958;2022-07-10T02:13:48;10.97;;;6.20;;
56667;SDS011;42542;48.360;10.958;2022-07-10T02:16:50;10.77;;;6.68;;
56667;SDS011;42542;48.360;10.958;2022-07-10T02:19:52;11.63;;;6.97;;
56667;SDS011;42542;48.360;10.958;2022-07-10T02:22:54;11.48;;;6.70;;
56667;SDS011;42542;48.360;10.958;2022-07-10T02:25:56;11.73;;;7.22;;
56667;SDS011;42542;48.360;10.958;2022-07-10T02:28:58;12.13;;;7.30;;
56667;SDS011;42542;48.360;10.958;2022-07-10T02:32:00;12.10;;;6.82;;
56667;SDS011;42542;48.360;10.958;2022-07-10T02:35:02;10.88;;;6.88;;
56667;SDS011;42542;48.360;10.958;2022-07-10T02:38:04;11.50;;;7.07;;
56667;SDS011;42542;48.360;10.958;2022-07-10T02:41:06;10.25;;;6.13;;
56667;SDS011;42542;48.360;10.958;2022-07-10T02:44:08;12.73;;;7.10;;
56667;SDS011;42542;48.360;10.958;2022-07-10T02:47:10;10.85;;;6.38;;
56667;SDS011;42542;48.360;10.958;2022-07-10T02:50:12;12.13;;;6.80;;
56667;SDS011;42542;48.360;10.958;2022-07-10T02:53:14;10.85;;;6.63;;
56667;SDS011;42542;48.360;10.958;2022-07-10T02:56:16;11.60;;;6.55;;
56667;SDS011;42542;48.360;10.958;2022-07-10T02:59:18;10.80;;;6.50;;
56667;SDS011;42542;48.360;10.958;2022-07-10T03:02:20;11.05;;;6.38;;
56667;SDS011;42542;48.360;10.958;2022-07-10T03:05:23;11.07;;;6.63;;
56667;SDS011;42542;48.360;10.958;2022-07-10T03:08:25;10.88;;;6.82;;
56667;SDS011;42542;48.360;10.958;2022-07-10T03:11:27;11.38;;;6.78;;
56667;SDS011;42542;48.360;10.958;2022-07-10T03:14:29;12.47;;;6.77;;
56667;SDS011;42542;48.360;10.958;2022-07-10T03:17:33;12.60;;;6.32;;
56667;SDS011;42542;48.360;10.958;2022-07-10T03:20:35;10.63;;;6.55;;
56667;SDS011;42542;48.360;10.958;2022-07-10T03:23:37;11.70;;;6.45;;
56667;SDS011;42542;48.360;10.958;2022-07-10T03:26:40;11.00;;;6.35;;
56667;SDS011;42542;48.360;10.958;2022-07-10T03:29:42;11.60;;;6.70;;
56667;SDS011;42542;48.360;10.958;2022-07-10T03:32:44;11.82;;;6.43;;
56667;SDS011;42542;48.360;10.958;2022-07-10T03:35:46;11.38;;;6.60;;
56667;SDS011;42542;48.360;10.958;2022-07-10T03:38:48;11.23;;;6.97;;
56667;SDS011;42542;48.360;10.958;2022-07-10T03:41:50;11.38;;;6.97;;
56667;SDS011;42542;48.360;10.958;2022-07-10T03:44:52;11.47;;;6.83;;
56667;SDS011;42542;48.360;10.958;2022-07-10T03:47:54;13.60;;;7.18;;
56667;SDS011;42542;48.360;10.958;2022-07-10T03:50:55;11.63;;;7.13;;
56667;SDS011;42542;48.360;10.958;2022-07-10T03:53:57;12.73;;;7.47;;
56667;SDS011;42542;48.360;10.958;2022-07-10T03:56:59;12.90;;;7.43;;
56667;SDS011;42542;48.360;10.958;2022-07-10T04:00:24;12.10;;;7.13;;
56667;SDS011;42542;48.360;10.958;2022-07-10T04:03:28;15.05;;;7.90;;
56667;SDS011;42542;48.360;10.958;2022-07-10T04:06:31;13.15;;;7.60;;
56667;SDS011;42542;48.360;10.958;2022-07-10T04:09:33;13.38;;;7.63;;
56667;SDS011;42542;48.360;10.958;2022-07-10T04:12:35;11.93;;;7.60;;
56667;SDS011;42542;48.360;10.958;2022-07-10T04:15:37;12.97;;;7.47;;
56667;SDS011;42542;48.360;10.958;2022-07-10T04:18:39;11.82;;;7.55;;
56667;SDS011;42542;48.360;10.958;2022-07-10T04:21:42;13.70;;;7.38;;
56667;SDS011;42542;48.360;10.958;2022-07-10T04:24:45;13.93;;;8.07;;
56667;SDS011;42542;48.360;10.958;2022-07-10T04:27:47;13.68;;;7.93;;
56667;SDS011;42542;48.360;10.958;2022-07-10T04:30:49;12.73;;;7.90;;
56667;SDS011;42542;48.360;10.958;2022-07-10T04:33:51;13.70;;;8.43;;
56667;SDS011;42542;48.360;10.958;2022-07-10T04:36:52;15.50;;;8.45;;
56667;SDS011;42542;48.360;10.958;2022-07-10T04:39:55;13.63;;;8.52;;
56667;SDS011;42542;48.360;10.958;2022-07-10T04:42:59;14.88;;;8.68;;
56667;SDS011;42542;48.360;10.958;2022-07-10T04:46:01;14.80;;;8.30;;
56667;SDS011;42542;48.360;10.958;2022-07-10T04:49:03;14.77;;;8.80;;
56667;SDS011;42542;48.360;10.958;2022-07-10T04:52:05;14.88;;;8.63;;
56667;SDS011;42542;48.360;10.958;2022-07-10T04:55:07;13.52;;;8.52;;
56667;SDS011;42542;48.360;10.958;2022-07-10T04:58:09;16.20;;;9.02;;
56667;SDS011;42542;48.360;10.958;2022-07-10T05:01:10;15.07;;;9.03;;
56667;SDS011;42542;48.360;10.958;2022-07-10T05:04:12;15.13;;;8.95;;
56667;SDS011;42542;48.360;10.958;2022-07-10T05:07:14;14.98;;;8.95;;
56667;SDS011;42542;48.360;10.958;2022-07-10T05:10:15;16.60;;;9.32;;
56667;SDS011;42542;48.360;10.958;2022-07-10T05:13:17;15.93;;;9.45;;
56667;SDS011;42542;48.360;10.958;2022-07-10T05:16:19;15.87;;;10.20;;
56667;SDS011;42542;48.360;10.958;2022-07-10T05:19:21;16.80;;;10.27;;
56667;SDS011;42542;48.360;10.958;2022-07-10T05:22:23;15.38;;;9.57;;
56667;SDS011;42542;48.360;10.958;2022-07-10T05:25:25;17.35;;;10.10;;
56667;SDS011;42542;48.360;10.958;2022-07-10T05:28:28;15.75;;;9.80;;
56667;SDS011;42542;48.360;10.958;2022-07-10T05:31:30;15.97;;;9.87;;
56667;SDS011;42542;48.360;10.958;2022-07-10T05:34:32;15.45;;;9.65;;
56667;SDS011;42542;48.360;10.958;2022-07-10T05:37:33;15.32;;;9.27;;
56667;SDS011;42542;48.360;10.958;2022-07-10T05:40:35;16.17;;;9.55;;
56667;SDS011;42542;48.360;10.958;2022-07-10T05:43:37;14.63;;;9.45;;
56667;SDS011;42542;48.360;10.958;2022-07-10T05:46:39;14.83;;;8.60;;
56667;SDS011;42542;48.360;10.958;2022-07-10T05:49:40;14.63;;;8.48;;
56667;SDS011;42542;48.360;10.958;2022-07-10T05:52:42;13.32;;;8.50;;
56667;SDS011;42542;48.360;10.958;2022-07-10T05:55:45;13.63;;;8.23;;
56667;SDS011;42542;48.360;10.958;2022-07-10T05:58:49;15.13;;;7.88;;
56667;SDS011;42542;48.360;10.958;2022-07-10T06:01:51;12.83;;;7.70;;
56667;SDS011;42542;48.360;10.958;2022-07-10T06:04:53;12.30;;;6.95;;
56667;SDS011;42542;48.360;10.958;2022-07-10T06:07:55;11.43;;;6.85;;
56667;SDS011;42542;48.360;10.958;2022-07-10T06:10:57;12.07;;;6.47;;
56667;SDS011;42542;48.360;10.958;2022-07-10T06:13:59;12.38;;;6.68;;
56667;SDS011;42542;48.360;10.958;2022-07-10T06:17:02;13.37;;;6.70;;
56667;SDS011;42542;48.360;10.958;2022-07-10T06:20:07;12.63;;;7.03;;
56667;SDS011;42542;48.360;10.958;2022-07-10T06:23:13;10.20;;;6.38;;
56667;SDS011;42542;48.360;10.958;2022-07-10T06:26:15;11.27;;;6.10;;
56667;SDS011;42542;48.360;10.958;2022-07-10T06:29:18;11.63;;;6.10;;
56667;SDS011;42542;48.360;10.958;2022-07-10T06:32:20;11.60;;;5.60;;
56667;SDS011;42542;48.360;10.958;2022-07-10T06:35:22;11.55;;;5.88;;
56667;SDS011;42542;48.360;10.958;2022-07-10T06:38:25;10.02;;;5.47;;
56667;SDS011;42542;48.360;10.958;2022-07-10T06:41:30;10.05;;;5.65;;
56667;SDS011;42542;48.360;10.958;2022-07-10T06:44:32;9.77;;;5.15;;
56667;SDS011;42542;48.360;10.958;2022-07-10T06:47:35;9.03;;;4.80;;
56667;SDS011;42542;48.360;10.958;2022-07-10T06:50:58;13.50;;;4.55;;
56667;SDS011;42542;48.360;10.958;2022-07-10T06:54:01;10.32;;;4.40;;
56667;SDS011;42542;48.360;10.958;2022-07-10T06:57:03;10.73;;;4.32;;
56667;SDS011;42542;48.360;10.958;2022-07-10T07:00:07;8.63;;;4.70;;
56667;SDS011;42542;48.360;10.958;2022-07-10T07:03:11;8.20;;;4.33;;
56667;SDS011;42542;48.360;10.958;2022-07-10T07:06:13;8.35;;;4.30;;
56667;SDS011;42542;48.360;10.958;2022-07-10T07:09:16;10.43;;;4.90;;
56667;SDS011;42542;48.360;10.958;2022-07-10T07:12:21;8.45;;;4.43;;
56667;SDS011;42542;48.360;10.958;2022-07-10T07:15:24;8.93;;;3.85;;
56667;SDS011;42542;48.360;10.958;2022-07-10T07:18:26;8.93;;;4.23;;
56667;SDS011;42542;48.360;10.958;2022-07-10T07:21:34;9.48;;;3.67;;
56667;SDS011;42542;48.360;10.958;2022-07-10T07:24:56;8.98;;;3.70;;
56667;SDS011;42542;48.360;10.958;2022-07-10T07:27:59;10.85;;;4.20;;
56667;SDS011;42542;48.360;10.958;2022-07-10T07:31:09;11.57;;;4.75;;
56667;SDS011;42542;48.360;10.958;2022-07-10T07:34:19;10.43;;;5.83;;
56667;SDS011;42542;48.360;10.958;2022-07-10T07:37:41;10.85;;;5.00;;
56667;SDS011;42542;48.360;10.958;2022-07-10T07:40:46;9.05;;;4.22;;
56667;SDS011;42542;48.360;10.958;2022-07-10T07:43:49;7.93;;;4.00;;
56667;SDS011;42542;48.360;10.958;2022-07-10T07:46:52;8.50;;;4.38;;
56667;SDS011;42542;48.360;10.958;2022-07-10T07:49:54;8.77;;;4.33;;
56667;SDS011;42542;48.360;10.958;2022-07-10T07:52:59;8.32;;;4.00;;
56667;SDS011;42542;48.360;10.958;2022-07-10T07:56:03;8.43;;;4.13;;
56667;SDS011;42542;48.360;10.958;2022-07-10T07:59:06;8.00;;;4.18;;
56667;SDS011;42542;48.360;10.958;2022-07-10T08:02:08;8.80;;;3.72;;
56667;SDS011;42542;48.360;10.958;2022-07-10T08:05:11;8.73;;;3.90;;
56667;SDS011;42542;48.360;10.958;2022-07-10T08:08:13;10.30;;;3.80;;
56667;SDS011;42542;48.360;10.958;2022-07-10T08:11:18;8.15;;;3.65;;
56667;SDS011;42542;48.360;10.958;2022-07-10T08:14:21;8.50;;;3.80;;
56667;SDS011;42542;48.360;10.958;2022-07-10T08:17:51;7.63;;;3.50;;
56667;SDS011;42542;48.360;10.958;2022-07-10T08:20:54;6.10;;;3.27;;
56667;SDS011;42542;48.360;10.958;2022-07-10T08:24:01;7.63;;;3.25;;
56667;SDS011;42542;48.360;10.958;2022-07-10T08:27:03;6.57;;;3.33;;
56667;SDS011;42542;48.360;10.958;2022-07-10T08:30:08;7.63;;;3.28;;
56667;SDS011;42542;48.360;10.958;2022-07-10T08:33:11;7.95;;;3.20;;
56667;SDS011;42542;48.360;10.958;2022-07-10T08:36:13;8.03;;;3.50;;
56667;SDS011;42542;48.360;10.958;2022-07-10T08:39:36;8.27;;;3.33;;
56667;SDS011;42542;48.360;10.958;2022-07-10T08:42:40;8.10;;;3.28;;
56667;SDS011;42542;48.360;10.958;2022-07-10T08:45:42;7.47;;;3.03;;
56667;SDS011;42542;48.360;10.958;2022-07-10T08:48:49;6.30;;;3.00;;
56667;SDS011;42542;48.360;10.958;2022-07-10T08:51:58;7.00;;;2.90;;
56667;SDS011;42542;48.360;10.958;2022-07-10T08:55:05;7.93;;;3.30;;
56667;SDS011;42542;48.360;10.958;2022-07-10T08:58:22;7.07;;;3.20;;
56667;SDS011;42542;48.360;10.958;2022-07-10T09:01:31;6.55;;;3.05;;
56667;SDS011;42542;48.360;10.958;2022-07-10T09:04:36;7.43;;;2.97;;
56667;SDS011;42542;48.360;10.958;2022-07-10T09:07:41;7.73;;;2.70;;
56667;SDS011;42542;48.360;10.958;2022-07-10T09:10:45;7.38;;;3.28;;
56667;SDS011;42542;48.360;10.958;2022-07-10T09:13:48;8.35;;;3.35;;
56667;SDS011;42542;48.360;10.958;2022-07-10T09:16:53;6.85;;;2.80;;
56667;SDS011;42542;48.360;10.958;2022-07-10T09:19:56;7.43;;;2.70;;
56667;SDS011;42542;48.360;10.958;2022-07-10T09:22:59;9.43;;;2.60;;
56667;SDS011;42542;48.360;10.958;2022-07-10T09:26:16;8.70;;;2.85;;
56667;SDS011;42542;48.360;10.958;2022-07-10T09:29:19;6.60;;;2.60;;
56667;SDS011;42542;48.360;10.958;2022-07-10T09:32:22;6.68;;;2.53;;
56667;SDS011;42542;48.360;10.958;2022-07-10T09:35:24;6.90;;;2.63;;
56667;SDS011;42542;48.360;10.958;2022-07-10T09:38:47;6.63;;;2.60;;
56667;SDS011;42542;48.360;10.958;2022-07-10T09:41:51;10.65;;;2.90;;
56667;SDS011;42542;48.360;10.958;2022-07-10T09:48:11;7.88;;;2.53;;
56667;SDS011;42542;48.360;10.958;2022-07-10T09:51:17;8.13;;;2.30;;
56667;SDS011;42542;48.360;10.958;2022-07-10T09:54:20;6.77;;;2.40;;
56667;SDS011;42542;48.360;10.958;2022-07-10T09:57:24;5.90;;;2.20;;
56667;SDS011;42542;48.360;10.958;2022-07-10T10:00:30;6.68;;;2.10;;
56667;SDS011;42542;48.360;10.958;2022-07-10T10:03:43;6.78;;;2.35;;
56667;SDS011;42542;48.360;10.958;2022-07-10T10:06:56;5.45;;;2.15;;
56667;SDS011;42542;48.360;10.958;2022-07-10T10:10:05;6.70;;;2.10;;
56667;SDS011;42542;48.360;10.958;2022-07-10T10:13:15;6.18;;;2.10;;
56667;SDS011;42542;48.360;10.958;2022-07-10T10:16:19;6.43;;;2.20;;
56667;SDS011;42542;48.360;10.958;2022-07-10T10:19:25;5.53;;;2.08;;
56667;SDS011;42542;48.360;10.958;2022-07-10T10:22:46;7.22;;;2.17;;
56667;SDS011;42542;48.360;10.958;2022-07-10T10:25:57;7.90;;;3.70;;
56667;SDS011;42542;48.360;10.958;2022-07-10T10:29:01;6.25;;;2.38;;
56667;SDS011;42542;48.360;10.958;2022-07-10T10:32:09;5.90;;;2.60;;
56667;SDS011;42542;48.360;10.958;2022-07-10T10:35:11;7.47;;;2.30;;
56667;SDS011;42542;48.360;10.958;2022-07-10T10:41:57;6.30;;;2.00;;
56667;SDS011;42542;48.360;10.958;2022-07-10T10:48:27;5.32;;;2.00;;
56667;SDS011;42542;48.360;10.958;2022-07-10T10:55:03;7.85;;;2.33;;
56667;SDS011;42542;48.360;10.958;2022-07-10T10:58:11;5.43;;;2.03;;
56667;SDS011;42542;48.360;10.958;2022-07-10T11:01:27;6.70;;;2.00;;
56667;SDS011;42542;48.360;10.958;2022-07-10T11:04:34;5.10;;;2.00;;
56667;SDS011;42542;48.360;10.958;2022-07-10T11:07:57;5.35;;;1.98;;
56667;SDS011;42542;48.360;10.958;2022-07-10T11:11:00;6.15;;;2.15;;
56667;SDS011;42542;48.360;10.958;2022-07-10T11:14:03;4.93;;;1.73;;
56667;SDS011;42542;48.360;10.958;2022-07-10T11:17:06;5.53;;;1.80;;
56667;SDS011;42542;48.360;10.958;2022-07-10T11:20:10;6.75;;;2.05;;
56667;SDS011;42542;48.360;10.958;2022-07-10T11:31:00;5.50;;;1.80;;
56667;SDS011;42542;48.360;10.958;2022-07-10T11:34:49;5.63;;;1.83;;
56667;SDS011;42542;48.360;10.958;2022-07-10T11:37:52;5.88;;;1.80;;
56667;SDS011;42542;48.360;10.958;2022-07-10T11:40:54;5.75;;;1.80;;
56667;SDS011;42542;48.360;10.958;2022-07-10T11:43:58;5.60;;;1.80;;
56667;SDS011;42542;48.360;10.958;2022-07-10T11:47:05;5.43;;;1.70;;
56667;SDS011;42542;48.360;10.958;2022-07-10T11:50:09;5.17;;;1.70;;
56667;SDS011;42542;48.360;10.958;2022-07-10T11:53:25;6.45;;;1.85;;
56667;SDS011;42542;48.360;10.958;2022-07-10T11:56:35;5.00;;;1.90;;
56667;SDS011;42542;48.360;10.958;2022-07-10T11:59:40;5.68;;;1.80;;
56667;SDS011;42542;48.360;10.958;2022-07-10T12:02:43;5.30;;;1.87;;
56667;SDS011;42542;48.360;10.958;2022-07-10T12:05:45;5.07;;;1.70;;
56667;SDS011;42542;48.360;10.958;2022-07-10T12:08:48;6.25;;;1.90;;
56667;SDS011;42542;48.360;10.958;2022-07-10T12:12:01;5.45;;;1.80;;
56667;SDS011;42542;48.360;10.958;2022-07-10T12:15:07;6.70;;;1.85;;
56667;SDS011;42542;48.360;10.958;2022-07-10T12:18:20;6.53;;;1.70;;
56667;SDS011;42542;48.360;10.958;2022-07-10T12:21:23;6.20;;;1.80;;
56667;SDS011;42542;48.360;10.958;2022-07-10T12:24:25;5.13;;;1.90;;
56667;SDS011;42542;48.360;10.958;2022-07-10T12:27:40;4.78;;;1.65;;
56667;SDS011;42542;48.360;10.958;2022-07-10T12:30:46;4.65;;;1.50;;
56667;SDS011;42542;48.360;10.958;2022-07-10T12:33:53;6.20;;;1.90;;
56667;SDS011;42542;48.360;10.958;2022-07-10T12:37:06;6.23;;;1.70;;
56667;SDS011;42542;48.360;10.958;2022-07-10T12:40:10;5.43;;;1.70;;
56667;SDS011;42542;48.360;10.958;2022-07-10T12:43:23;7.28;;;1.83;;
56667;SDS011;42542;48.360;10.958;2022-07-10T12:46:27;5.22;;;1.75;;
56667;SDS011;42542;48.360;10.958;2022-07-10T12:49:29;5.73;;;1.90;;
56667;SDS011;42542;48.360;10.958;2022-07-10T12:52:38;6.57;;;1.90;;
56667;SDS011;42542;48.360;10.958;2022-07-10T12:55:41;6.53;;;1.70;;
56667;SDS011;42542;48.360;10.958;2022-07-10T12:58:46;5.35;;;1.88;;
56667;SDS011;42542;48.360;10.958;2022-07-10T13:01:53;5.75;;;1.60;;
56667;SDS011;42542;48.360;10.958;2022-07-10T13:04:56;5.17;;;1.70;;
56667;SDS011;42542;48.360;10.958;2022-07-10T13:08:48;5.00;;;1.60;;
56667;SDS011;42542;48.360;10.958;2022-07-10T13:11:52;6.97;;;1.70;;
56667;SDS011;42542;48.360;10.958;2022-07-10T13:14:55;5.10;;;1.50;;
56667;SDS011;42542;48.360;10.958;2022-07-10T13:17:58;4.30;;;1.50;;
56667;SDS011;42542;48.360;10.958;2022-07-10T13:21:00;5.03;;;1.40;;
56667;SDS011;42542;48.360;10.958;2022-07-10T13:24:04;4.70;;;1.43;;
56667;SDS011;42542;48.360;10.958;2022-07-10T13:27:15;7.28;;;1.63;;
56667;SDS011;42542;48.360;10.958;2022-07-10T13:30:17;4.45;;;1.40;;
56667;SDS011;42542;48.360;10.958;2022-07-10T13:33:20;4.85;;;1.67;;
56667;SDS011;42542;48.360;10.958;2022-07-10T13:36:28;4.53;;;1.40;;
56667;SDS011;42542;48.360;10.958;2022-07-10T13:39:30;5.37;;;1.60;;
56667;SDS011;42542;48.360;10.958;2022-07-10T13:42:32;7.15;;;2.70;;
56667;SDS011;42542;48.360;10.958;2022-07-10T13:45:35;6.50;;;2.47;;
56667;SDS011;42542;48.360;10.958;2022-07-10T13:48:49;4.93;;;1.70;;
56667;SDS011;42542;48.360;10.958;2022-07-10T13:51:51;4.40;;;1.60;;
56667;SDS011;42542;48.360;10.958;2022-07-10T13:54:56;6.67;;;1.40;;
56667;SDS011;42542;48.360;10.958;2022-07-10T13:57:58;5.05;;;1.90;;
56667;SDS011;42542;48.360;10.958;2022-07-10T14:01:01;6.10;;;1.60;;
56667;SDS011;42542;48.360;10.958;2022-07-10T14:04:08;5.55;;;1.30;;
56667;SDS011;42542;48.360;10.958;2022-07-10T14:07:11;4.97;;;1.20;;
56667;SDS011;42542;48.360;10.958;2022-07-10T14:10:13;5.60;;;1.30;;
56667;SDS011;42542;48.360;10.958;2022-07-10T14:13:17;4.80;;;1.40;;
56667;SDS011;42542;48.360;10.958;2022-07-10T14:16:30;4.05;;;1.20;;
56667;SDS011;42542;48.360;10.958;2022-07-10T14:19:35;4.00;;;1.20;;
56667;SDS011;42542;48.360;10.958;2022-07-10T14:22:38;4.60;;;1.33;;
56667;SDS011;42542;48.360;10.958;2022-07-10T14:25:40;5.03;;;1.70;;
56667;SDS011;42542;48.360;10.958;2022-07-10T14:28:42;5.75;;;1.50;;
56667;SDS011;42542;48.360;10.958;2022-07-10T14:31:46;5.78;;;1.70;;
56667;SDS011;42542;48.360;10.958;2022-07-10T14:34:53;4.10;;;1.20;;
56667;SDS011;42542;48.360;10.958;2022-07-10T14:37:57;4.33;;;1.20;;
56667;SDS011;42542;48.360;10.958;2022-07-10T14:41:00;4.30;;;1.40;;
56667;SDS011;42542;48.360;10.958;2022-07-10T14:44:03;4.32;;;1.30;;
56667;SDS011;42542;48.360;10.958;2022-07-10T14:47:06;5.00;;;1.45;;
56667;SDS011;42542;48.360;10.958;2022-07-10T14:50:08;3.95;;;1.35;;
56667;SDS011;42542;48.360;10.958;2022-07-10T14:53:10;5.07;;;1.30;;
56667;SDS011;42542;48.360;10.958;2022-07-10T14:56:12;3.87;;;1.20;;
56667;SDS011;42542;48.360;10.958;2022-07-10T14:59:17;4.72;;;1.20;;
56667;SDS011;42542;48.360;10.958;2022-07-10T15:02:19;4.88;;;1.20;;
56667;SDS011;42542;48.360;10.958;2022-07-10T15:05:20;3.92;;;1.08;;
56667;SDS011;42542;48.360;10.958;2022-07-10T15:08:23;5.33;;;1.47;;
56667;SDS011;42542;48.360;10.958;2022-07-10T15:11:25;5.20;;;1.50;;
56667;SDS011;42542;48.360;10.958;2022-07-10T15:14:27;4.28;;;1.23;;
56667;SDS011;42542;48.360;10.958;2022-07-10T15:17:30;3.92;;;1.20;;
56667;SDS011;42542;48.360;10.958;2022-07-10T15:20:32;4.70;;;1.35;;
56667;SDS011;42542;48.360;10.958;2022-07-10T15:23:33;5.13;;;1.57;;
56667;SDS011;42542;48.360;10.958;2022-07-10T15:26:35;4.83;;;1.20;;
56667;SDS011;42542;48.360;10.958;2022-07-10T15:29:37;5.85;;;1.30;;
56667;SDS011;42542;48.360;10.958;2022-07-10T15:32:38;4.53;;;1.30;;
56667;SDS011;42542;48.360;10.958;2022-07-10T15:35:40;4.30;;;1.30;;
56667;SDS011;42542;48.360;10.958;2022-07-10T15:38:42;4.77;;;1.30;;
56667;SDS011;42542;48.360;10.958;2022-07-10T15:41:44;4.27;;;1.30;;
56667;SDS011;42542;48.360;10.958;2022-07-10T15:44:46;6.57;;;1.27;;
56667;SDS011;42542;48.360;10.958;2022-07-10T15:47:48;3.95;;;1.05;;
56667;SDS011;42542;48.360;10.958;2022-07-10T15:50:50;4.53;;;1.20;;
56667;SDS011;42542;48.360;10.958;2022-07-10T15:53:51;5.03;;;1.20;;
56667;SDS011;42542;48.360;10.958;2022-07-10T15:56:53;5.57;;;1.10;;
56667;SDS011;42542;48.360;10.958;2022-07-10T15:59:55;4.13;;;1.10;;
56667;SDS011;42542;48.360;10.958;2022-07-10T16:02:57;3.65;;;1.10;;
56667;SDS011;42542;48.360;10.958;2022-07-10T16:06:06;4.07;;;1.20;;
56667;SDS011;42542;48.360;10.958;2022-07-10T16:09:08;4.47;;;1.10;;
56667;SDS011;42542;48.360;10.958;2022-07-10T16:12:17;4.27;;;1.20;;
56667;SDS011;42542;48.360;10.958;2022-07-10T16:15:23;4.43;;;1.00;;
56667;SDS011;42542;48.360;10.958;2022-07-10T16:18:25;4.13;;;1.00;;
56667;SDS011;42542;48.360;10.958;2022-07-10T16:21:28;4.35;;;1.20;;
56667;SDS011;42542;48.360;10.958;2022-07-10T16:24:30;3.07;;;0.93;;
56667;SDS011;42542;48.360;10.958;2022-07-10T16:27:33;2.93;;;1.00;;
56667;SDS011;42542;48.360;10.958;2022-07-10T16:30:36;3.40;;;0.90;;
56667;SDS011;42542;48.360;10.958;2022-07-10T16:33:38;4.28;;;0.98;;
56667;SDS011;42542;48.360;10.958;2022-07-10T16:36:45;3.33;;;1.00;;
56667;SDS011;42542;48.360;10.958;2022-07-10T16:39:51;2.67;;;1.00;;
56667;SDS011;42542;48.360;10.958;2022-07-10T16:43:00;3.20;;;0.90;;
56667;SDS011;42542;48.360;10.958;2022-07-10T16:46:03;4.90;;;0.95;;
56667;SDS011;42542;48.360;10.958;2022-07-10T16:49:06;4.25;;;1.10;;
56667;SDS011;42542;48.360;10.958;2022-07-10T16:52:12;4.07;;;0.90;;
56667;SDS011;42542;48.360;10.958;2022-07-10T16:55:14;3.23;;;0.90;;
56667;SDS011;42542;48.360;10.958;2022-07-10T16:58:16;3.40;;;0.90;;
56667;SDS011;42542;48.360;10.958;2022-07-10T17:01:18;3.72;;;1.00;;
56667;SDS011;42542;48.360;10.958;2022-07-10T17:04:19;5.60;;;1.30;;
56667;SDS011;42542;48.360;10.958;2022-07-10T17:07:37;3.42;;;0.93;;
56667;SDS011;42542;48.360;10.958;2022-07-10T17:10:41;3.90;;;0.90;;
56667;SDS011;42542;48.360;10.958;2022-07-10T17:13:43;3.27;;;1.00;;
56667;SDS011;42542;48.360;10.958;2022-07-10T17:16:45;3.85;;;1.02;;
56667;SDS011;42542;48.360;10.958;2022-07-10T17:19:46;3.72;;;0.98;;
56667;SDS011;42542;48.360;10.958;2022-07-10T17:22:48;4.40;;;1.00;;
56667;SDS011;42542;48.360;10.958;2022-07-10T17:25:50;4.07;;;1.10;;
56667;SDS011;42542;48.360;10.958;2022-07-10T17:28:51;3.50;;;1.10;;
56667;SDS011;42542;48.360;10.958;2022-07-10T17:31:54;5.45;;;1.25;;
56667;SDS011;42542;48.360;10.958;2022-07-10T17:34:56;3.88;;;1.10;;
56667;SDS011;42542;48.360;10.958;2022-07-10T17:37:59;3.33;;;0.95;;
56667;SDS011;42542;48.360;10.958;2022-07-10T17:41:03;4.50;;;1.10;;
56667;SDS011;42542;48.360;10.958;2022-07-10T17:44:07;5.90;;;1.27;;
56667;SDS011;42542;48.360;10.958;2022-07-10T17:47:09;3.28;;;1.00;;
56667;SDS011;42542;48.360;10.958;2022-07-10T17:50:11;4.50;;;1.00;;
56667;SDS011;42542;48.360;10.958;2022-07-10T17:53:14;3.85;;;1.17;;
56667;SDS011;42542;48.360;10.958;2022-07-10T17:56:16;4.77;;;1.20;;
56667;SDS011;42542;48.360;10.958;2022-07-10T17:59:19;4.87;;;1.20;;
56667;SDS011;42542;48.360;10.958;2022-07-10T18:02:24;3.90;;;1.00;;
56667;SDS011;42542;48.360;10.958;2022-07-10T18:05:27;5.57;;;1.10;;
56667;SDS011;42542;48.360;10.958;2022-07-10T18:08:31;4.18;;;1.00;;
56667;SDS011;42542;48.360;10.958;2022-07-10T18:11:33;4.37;;;1.10;;
56667;SDS011;42542;48.360;10.958;2022-07-10T18:14:36;4.23;;;1.00;;
56667;SDS011;42542;48.360;10.958;2022-07-10T18:17:44;4.25;;;0.90;;
56667;SDS011;42542;48.360;10.958;2022-07-10T18:20:48;4.70;;;1.08;;
56667;SDS011;42542;48.360;10.958;2022-07-10T18:23:59;4.90;;;1.10;;
56667;SDS011;42542;48.360;10.958;2022-07-10T18:27:04;4.17;;;1.00;;
56667;SDS011;42542;48.360;10.958;2022-07-10T18:30:06;4.10;;;0.90;;
56667;SDS011;42542;48.360;10.958;2022-07-10T18:33:08;3.92;;;1.10;;